URMMURSS

Guest
Details From URMM - Mineralnyye Vody
To URSS - Sochi
Flight Number -
Tags Generated
Created
Modified
Stats Distance 143 nm / 265 km
Max Altitude 0 ft / 0 m
Waypoints 2
Social Downloads 3
Likes 0
Share VATSIM

Download

Looking for another format? Having issues loading an existing format? Contact us
Advertisement - Login to hide

Notes

Generated

Route

URMM URSS

ID Type Via Altitude Latitude Longitude Leg Dist Tot Dist Heading (true) Name
O URMM APT - 0 ft / 0 m 44.23442˚ 43.06126˚ - 0 nm - -
O URSS APT - 0 ft / 0 m 43.43576˚ 39.94578˚ 143 nm 143 nm 252° / 249° Sochi

Altitude Profile

Advertisement - Login to hide

URMM

Details ICAO URMM (MRV)
Name MINERALNYYE VODY
Region Russia
Timezone Europe/Moscow (UTC+3.0)
Stats Elevation 1,054 ft / 321 m (AMSL)
Location 44.225073° 43.081891°
Runways 1
Magnetic Variation 7.387° E

METAR

URMM 140830Z 11004MPS 3500 BR OVC002 02/02 Q1019 R12/090070 NOSIG RMK QBB070 MT OBSC QFE736/0981

Decode

TAF

TAF URMM 140800Z 1409/1509 11003G08MPS 3100 BR OVC004 TX03/1410Z TN00/1503Z TEMPO 1409/1413 -DZ BR OVC002 TEMPO 1413/1506 0300 -DZ FG OVC002

Decode

Departure Runways

ID Width Length Bearing (true) Bearing (mag) Surface Threshold Offset Overrun Length
12 197 ft / 60 m 12,766 ft / 3,891 m 122.28° 114.89° Concrete 0 ft / 0 m 240 ft / 73 m
30 197 ft / 60 m 12,766 ft / 3,891 m 302.31° 294.92° Concrete 0 ft / 0 m 250 ft / 76 m

URSS

Details ICAO URSS (AER)
Name Sochi
Region Russia
Timezone Europe/Moscow (UTC+3.0)
Stats Elevation 89 ft / 27 m (AMSL)
Location 43.444749° 39.947302°
Runways 2
Magnetic Variation 6.962° E

METAR

URSS 140830Z 04002MPS 9999 NSC 12/00 Q1016 R02/090070 R06/090070 NOSIG RMK R06/09002MPS QFE760

Decode

TAF

TAF URSS 140757Z 1409/1509 VRB01MPS 9999 NSC BECMG 1414/1415 05006MPS SCT011 BKN100 TEMPO 1417/1421 15006MPS BKN006 BKN100 TEMPO 1421/1424 28006MPS BKN006 BKN100 TEMPO 1500/1508 03007G12MPS

Decode

Destination Runways

ID Width Length Bearing (true) Bearing (mag) Surface Threshold Offset Overrun Length
02 161 ft / 49 m 7,267 ft / 2,215 m 28.98° 22.02° Concrete 0 ft / 0 m 0 ft / 0 m
06 164 ft / 50 m 9,531 ft / 2,905 m 64.90° 57.94° Concrete 262 ft / 80 m 0 ft / 0 m
20 161 ft / 49 m 7,267 ft / 2,215 m 208.99° 202.03° Concrete 0 ft / 0 m 0 ft / 0 m
24 164 ft / 50 m 9,531 ft / 2,905 m 244.92° 237.96° Concrete 0 ft / 0 m 0 ft / 0 m

Approach Navaids

Runway Type Ident Frequency Range Bearing (true) Bearing (mag) Slope Elevation
02 Localiser IAD 110.50 MHz 18 nm / 33 km 30.95° 23.99° - 89 ft / 27 m (AMSL)
02 Glidescope IAD 110.50 MHz 10 nm / 19 km 28.98° 22.02° 2.80° 89 ft / 27 m (AMSL)
06 Localiser ISO 111.10 MHz 18 nm / 33 km 65.82° 58.86° - 89 ft / 27 m (AMSL)
06 Glidescope ISO 111.10 MHz 10 nm / 19 km 64.91° 57.95° 2.80° 89 ft / 27 m (AMSL)

Popular Alternatives